sensor_id;sensor_type;location;lat;lon;timestamp;pressure;altitude;pressure_sealevel;temperature;humidity
7018;BME280;3549;42.162;24.726;2023-06-22T00:02:17;47449.88;;;-141.97;65.77
7018;BME280;3549;42.162;24.726;2023-06-22T00:04:42;47461.41;;;-141.97;65.88
7018;BME280;3549;42.162;24.726;2023-06-22T00:07:08;47480.63;;;-141.97;65.56
7018;BME280;3549;42.162;24.726;2023-06-22T00:09:33;47415.28;;;-141.97;65.00
7018;BME280;3549;42.162;24.726;2023-06-22T00:12:02;47472.94;;;-141.97;64.70
7018;BME280;3549;42.162;24.726;2023-06-22T00:14:27;47494.09;;;-141.97;64.25
7018;BME280;3549;42.162;24.726;2023-06-22T00:16:52;47469.09;;;-141.97;63.65
7018;BME280;3549;42.162;24.726;2023-06-22T00:19:20;47465.25;;;-141.97;63.94
7018;BME280;3549;42.162;24.726;2023-06-22T00:21:48;47463.34;;;-141.97;63.65
7018;BME280;3549;42.162;24.726;2023-06-22T00:24:21;47428.75;;;-141.97;64.07
7018;BME280;3549;42.162;24.726;2023-06-22T00:26:50;47413.38;;;-141.97;64.60
7018;BME280;3549;42.162;24.726;2023-06-22T00:29:15;47461.41;;;-141.97;65.61
7018;BME280;3549;42.162;24.726;2023-06-22T00:31:40;47471.03;;;-141.97;65.96
7018;BME280;3549;42.162;24.726;2023-06-22T00:34:06;47465.25;;;-141.97;66.71
7018;BME280;3549;42.162;24.726;2023-06-22T00:36:34;47603.66;;;-141.97;66.83
7018;BME280;3549;42.162;24.726;2023-06-22T00:38:59;47522.91;;;-141.97;66.98
7018;BME280;3549;42.162;24.726;2023-06-22T00:41:25;47432.59;;;-141.97;67.36
7018;BME280;3549;42.162;24.726;2023-06-22T00:43:53;47461.41;;;-141.97;67.62
7018;BME280;3549;42.162;24.726;2023-06-22T00:46:19;47478.72;;;-141.97;68.00
7018;BME280;3549;42.162;24.726;2023-06-22T00:48:44;47465.25;;;-141.97;67.38
7018;BME280;3549;42.162;24.726;2023-06-22T00:51:10;47482.56;;;-141.97;67.16
7018;BME280;3549;42.162;24.726;2023-06-22T00:53:36;47482.56;;;-141.97;67.81
7018;BME280;3549;42.162;24.726;2023-06-22T00:56:02;47432.59;;;-141.97;69.11
7018;BME280;3549;42.162;24.726;2023-06-22T00:58:29;47486.41;;;-141.97;69.52
7018;BME280;3549;42.162;24.726;2023-06-22T01:00:55;47403.75;;;-141.97;69.31
7018;BME280;3549;42.162;24.726;2023-06-22T01:03:20;47674.78;;;-141.97;68.68
7018;BME280;3549;42.162;24.726;2023-06-22T01:05:46;47403.75;;;-141.97;68.25
7018;BME280;3549;42.162;24.726;2023-06-22T01:16:40;47499.84;;;-141.97;70.07
7018;BME280;3549;42.162;24.726;2023-06-22T01:19:25;47497.94;;;-141.97;70.07
7018;BME280;3549;42.162;24.726;2023-06-22T01:21:55;47409.53;;;-141.97;68.50
7018;BME280;3549;42.162;24.726;2023-06-22T01:24:26;47484.47;;;-141.97;68.10
7018;BME280;3549;42.162;24.726;2023-06-22T01:29:37;47496.00;;;-141.97;67.86
7018;BME280;3549;42.162;24.726;2023-06-22T01:32:04;47474.88;;;-141.97;68.19
7018;BME280;3549;42.162;24.726;2023-06-22T01:34:31;47453.72;;;-141.97;67.38
7018;BME280;3549;42.162;24.726;2023-06-22T01:36:58;47496.00;;;-141.97;67.87
7018;BME280;3549;42.162;24.726;2023-06-22T01:39:26;47497.94;;;-141.97;68.00
7018;BME280;3549;42.162;24.726;2023-06-22T01:41:52;47369.16;;;-141.97;68.49
7018;BME280;3549;42.162;24.726;2023-06-22T01:44:18;47484.47;;;-141.97;68.76
7018;BME280;3549;42.162;24.726;2023-06-22T01:46:44;47492.16;;;-141.97;68.82
7018;BME280;3549;42.162;24.726;2023-06-22T01:49:10;47421.06;;;-141.97;69.19
7018;BME280;3549;42.162;24.726;2023-06-22T01:51:35;47496.00;;;-141.97;69.15
7018;BME280;3549;42.162;24.726;2023-06-22T01:54:01;47609.41;;;-141.97;69.04
7018;BME280;3549;42.162;24.726;2023-06-22T01:56:27;47519.06;;;-141.97;68.88
7018;BME280;3549;42.162;24.726;2023-06-22T01:59:05;47521.00;;;-141.97;68.74
7018;BME280;3549;42.162;24.726;2023-06-22T02:01:38;47521.00;;;-141.97;68.91
7018;BME280;3549;42.162;24.726;2023-06-22T02:04:12;47415.28;;;-141.97;70.52
7018;BME280;3549;42.162;24.726;2023-06-22T02:06:42;47592.13;;;-141.97;71.52
7018;BME280;3549;42.162;24.726;2023-06-22T02:09:20;47521.00;;;-141.97;71.96
7018;BME280;3549;42.162;24.726;2023-06-22T02:11:46;47486.41;;;-141.97;74.60
7018;BME280;3549;42.162;24.726;2023-06-22T02:14:13;47524.84;;;-141.97;76.42
7018;BME280;3549;42.162;24.726;2023-06-22T02:16:40;47534.44;;;-141.97;77.79
7018;BME280;3549;42.162;24.726;2023-06-22T02:19:05;47478.72;;;-141.97;78.21
7018;BME280;3549;42.162;24.726;2023-06-22T02:21:32;47524.84;;;-141.97;78.16
7018;BME280;3549;42.162;24.726;2023-06-22T02:23:58;47511.38;;;-141.97;77.05
7018;BME280;3549;42.162;24.726;2023-06-22T02:26:25;47526.75;;;-141.97;76.08
7018;BME280;3549;42.162;24.726;2023-06-22T02:28:51;47496.00;;;-141.97;75.23
7018;BME280;3549;42.162;24.726;2023-06-22T02:31:16;47507.53;;;-141.97;75.50
7018;BME280;3549;42.162;24.726;2023-06-22T02:33:42;47438.34;;;-141.97;76.50
7018;BME280;3549;42.162;24.726;2023-06-22T02:36:09;47496.00;;;-141.97;77.83
7018;BME280;3549;42.162;24.726;2023-06-22T02:38:37;47480.63;;;-141.97;78.15
7018;BME280;3549;42.162;24.726;2023-06-22T02:41:02;47472.94;;;-141.97;78.80
7018;BME280;3549;42.162;24.726;2023-06-22T02:43:28;47534.44;;;-141.97;78.71
7018;BME280;3549;42.162;24.726;2023-06-22T02:45:54;47524.84;;;-141.97;79.37
7018;BME280;3549;42.162;24.726;2023-06-22T02:48:19;47488.31;;;-141.97;80.31
7018;BME280;3549;42.162;24.726;2023-06-22T02:50:45;47557.53;;;-141.97;79.63
7018;BME280;3549;42.162;24.726;2023-06-22T02:53:10;47538.28;;;-141.97;78.93
7018;BME280;3549;42.162;24.726;2023-06-22T02:55:36;47499.84;;;-141.97;78.67
7018;BME280;3549;42.162;24.726;2023-06-22T02:58:01;47496.00;;;-141.97;79.54
7018;BME280;3549;42.162;24.726;2023-06-22T03:00:30;47511.38;;;-141.97;79.01
7018;BME280;3549;42.162;24.726;2023-06-22T03:02:57;47540.22;;;-141.97;79.04
7018;BME280;3549;42.162;24.726;2023-06-22T03:05:23;47526.75;;;-141.97;79.16
7018;BME280;3549;42.162;24.726;2023-06-22T03:07:48;47524.84;;;-141.97;78.24
7018;BME280;3549;42.162;24.726;2023-06-22T03:10:15;47497.94;;;-141.97;77.90
7018;BME280;3549;42.162;24.726;2023-06-22T03:12:41;47559.44;;;-141.97;77.93
7018;BME280;3549;42.162;24.726;2023-06-22T03:15:11;47513.31;;;-141.97;76.63
7018;BME280;3549;42.162;24.726;2023-06-22T03:17:38;47572.91;;;-141.97;75.36
7018;BME280;3549;42.162;24.726;2023-06-22T03:20:05;47484.47;;;-141.97;74.57
7018;BME280;3549;42.162;24.726;2023-06-22T03:22:36;47490.25;;;-141.97;73.48
7018;BME280;3549;42.162;24.726;2023-06-22T03:25:02;47517.16;;;-141.97;72.46
7018;BME280;3549;42.162;24.726;2023-06-22T03:27:28;47486.41;;;-141.97;72.29
7018;BME280;3549;42.162;24.726;2023-06-22T03:29:53;47490.25;;;-141.97;71.69
7018;BME280;3549;42.162;24.726;2023-06-22T03:32:18;47405.69;;;-141.97;71.13
7018;BME280;3549;42.162;24.726;2023-06-22T03:34:44;47490.25;;;-141.97;71.92
7018;BME280;3549;42.162;24.726;2023-06-22T03:37:15;47503.69;;;-141.97;71.76
7018;BME280;3549;42.162;24.726;2023-06-22T03:39:41;47461.41;;;-141.97;71.64
7018;BME280;3549;42.162;24.726;2023-06-22T03:42:10;47544.06;;;-141.97;71.52
7018;BME280;3549;42.162;24.726;2023-06-22T03:44:35;47526.75;;;-141.97;71.40
7018;BME280;3549;42.162;24.726;2023-06-22T03:47:04;47626.72;;;-141.97;70.99
7018;BME280;3549;42.162;24.726;2023-06-22T03:49:29;47492.16;;;-141.97;70.91
7018;BME280;3549;42.162;24.726;2023-06-22T03:51:55;47511.38;;;-141.97;70.56
7018;BME280;3549;42.162;24.726;2023-06-22T03:54:20;47480.63;;;-141.97;70.67
7018;BME280;3549;42.162;24.726;2023-06-22T03:56:46;47536.38;;;-141.97;70.69
7018;BME280;3549;42.162;24.726;2023-06-22T03:59:11;47536.38;;;-141.97;71.21
7018;BME280;3549;42.162;24.726;2023-06-22T04:01:37;47590.19;;;-141.97;71.50
7018;BME280;3549;42.162;24.726;2023-06-22T04:04:02;47526.75;;;-141.97;71.23
7018;BME280;3549;42.162;24.726;2023-06-22T04:06:27;47488.31;;;-141.97;70.85
7018;BME280;3549;42.162;24.726;2023-06-22T04:08:53;47480.63;;;-141.97;71.20
7018;BME280;3549;42.162;24.726;2023-06-22T04:11:18;47447.97;;;-141.97;72.02
7018;BME280;3549;42.162;24.726;2023-06-22T04:13:44;47526.75;;;-141.97;73.25
7018;BME280;3549;42.162;24.726;2023-06-22T04:16:10;47421.06;;;-141.97;72.78
7018;BME280;3549;42.162;24.726;2023-06-22T04:18:35;47526.75;;;-141.97;72.41
7018;BME280;3549;42.162;24.726;2023-06-22T04:21:01;47486.41;;;-141.97;71.51
7018;BME280;3549;42.162;24.726;2023-06-22T04:23:27;47517.16;;;-141.97;70.63
7018;BME280;3549;42.162;24.726;2023-06-22T04:25:52;47415.28;;;-141.97;69.83
7018;BME280;3549;42.162;24.726;2023-06-22T04:28:18;47532.53;;;-141.97;69.27
7018;BME280;3549;42.162;24.726;2023-06-22T04:30:43;47511.38;;;-141.97;68.39
7018;BME280;3549;42.162;24.726;2023-06-22T04:33:15;47532.53;;;-141.97;68.50
7018;BME280;3549;42.162;24.726;2023-06-22T04:35:40;47476.78;;;-141.97;69.89
7018;BME280;3549;42.162;24.726;2023-06-22T04:38:06;47488.31;;;-141.97;71.64
7018;BME280;3549;42.162;24.726;2023-06-22T04:40:32;47419.13;;;-141.97;72.60
7018;BME280;3549;42.162;24.726;2023-06-22T04:43:00;47507.53;;;-141.97;73.39
7018;BME280;3549;42.162;24.726;2023-06-22T04:45:28;47522.91;;;-141.97;73.12
7018;BME280;3549;42.162;24.726;2023-06-22T04:47:57;47536.38;;;-141.97;72.57
7018;BME280;3549;42.162;24.726;2023-06-22T04:50:23;47544.06;;;-141.97;72.21
7018;BME280;3549;42.162;24.726;2023-06-22T04:52:49;47511.38;;;-141.97;71.44
7018;BME280;3549;42.162;24.726;2023-06-22T04:55:14;47517.16;;;-141.97;70.73
7018;BME280;3549;42.162;24.726;2023-06-22T04:57:47;47534.44;;;-141.97;70.70
7018;BME280;3549;42.162;24.726;2023-06-22T05:00:19;47490.25;;;-141.97;69.55
7018;BME280;3549;42.162;24.726;2023-06-22T05:02:46;47457.56;;;-141.97;68.18
7018;BME280;3549;42.162;24.726;2023-06-22T05:05:12;47515.22;;;-141.97;66.39
7018;BME280;3549;42.162;24.726;2023-06-22T05:07:45;47501.78;;;-141.97;65.54
7018;BME280;3549;42.162;24.726;2023-06-22T05:10:14;47469.09;;;-141.97;64.38
7018;BME280;3549;42.162;24.726;2023-06-22T05:12:40;47490.25;;;-141.97;63.87
7018;BME280;3549;42.162;24.726;2023-06-22T05:15:07;47494.09;;;-141.97;63.79
7018;BME280;3549;42.162;24.726;2023-06-22T05:17:32;47453.72;;;-141.97;62.54
7018;BME280;3549;42.162;24.726;2023-06-22T05:19:58;47469.09;;;-141.97;62.60
7018;BME280;3549;42.162;24.726;2023-06-22T05:22:23;47488.31;;;-141.97;61.69
7018;BME280;3549;42.162;24.726;2023-06-22T05:24:48;47480.63;;;-141.97;59.75
7018;BME280;3549;42.162;24.726;2023-06-22T05:27:14;47490.25;;;-141.97;58.90
7018;BME280;3549;42.162;24.726;2023-06-22T05:29:39;47440.28;;;-141.97;57.83
7018;BME280;3549;42.162;24.726;2023-06-22T05:32:05;47484.47;;;-141.97;57.48
7018;BME280;3549;42.162;24.726;2023-06-22T05:34:31;47394.16;;;-141.97;56.69
7018;BME280;3549;42.162;24.726;2023-06-22T05:36:57;47465.25;;;-141.97;56.54
7018;BME280;3549;42.162;24.726;2023-06-22T05:39:24;47434.50;;;-141.97;56.05
7018;BME280;3549;42.162;24.726;2023-06-22T05:41:50;47507.53;;;-141.97;55.73
7018;BME280;3549;42.162;24.726;2023-06-22T05:44:15;47453.72;;;-141.97;55.31
7018;BME280;3549;42.162;24.726;2023-06-22T05:46:42;47446.03;;;-141.97;54.35
7018;BME280;3549;42.162;24.726;2023-06-22T05:49:14;47447.97;;;-141.97;53.96
7018;BME280;3549;42.162;24.726;2023-06-22T05:51:43;47430.66;;;-141.97;53.51
7018;BME280;3549;42.162;24.726;2023-06-22T05:54:08;47457.56;;;-141.97;53.21
7018;BME280;3549;42.162;24.726;2023-06-22T05:56:34;47424.91;;;-141.97;52.50
7018;BME280;3549;42.162;24.726;2023-06-22T05:58:59;47472.94;;;-141.97;51.62
7018;BME280;3549;42.162;24.726;2023-06-22T06:01:25;47438.34;;;-141.97;51.58
7018;BME280;3549;42.162;24.726;2023-06-22T06:03:51;47422.97;;;-141.97;51.12
7018;BME280;3549;42.162;24.726;2023-06-22T06:06:18;47478.72;;;-141.97;49.89
7018;BME280;3549;42.162;24.726;2023-06-22T06:08:43;47472.94;;;-141.97;49.84
7018;BME280;3549;42.162;24.726;2023-06-22T06:11:08;47446.03;;;-141.97;49.20
7018;BME280;3549;42.162;24.726;2023-06-22T06:13:34;47446.03;;;-141.97;49.31
7018;BME280;3549;42.162;24.726;2023-06-22T06:15:59;47413.38;;;-141.97;48.37
7018;BME280;3549;42.162;24.726;2023-06-22T06:18:25;47447.97;;;-141.97;48.44
7018;BME280;3549;42.162;24.726;2023-06-22T06:20:51;47384.53;;;-141.97;48.41
7018;BME280;3549;42.162;24.726;2023-06-22T06:23:16;47426.81;;;-141.97;48.75
7018;BME280;3549;42.162;24.726;2023-06-22T06:25:42;47407.59;;;-141.97;48.76
7018;BME280;3549;42.162;24.726;2023-06-22T06:28:07;47417.22;;;-141.97;47.63
7018;BME280;3549;42.162;24.726;2023-06-22T06:30:32;47440.28;;;-141.97;48.18
7018;BME280;3549;42.162;24.726;2023-06-22T06:32:58;47405.69;;;-141.97;47.72
7018;BME280;3549;42.162;24.726;2023-06-22T06:35:23;47430.66;;;-141.97;47.57
7018;BME280;3549;42.162;24.726;2023-06-22T06:37:50;47374.94;;;-141.97;46.91
7018;BME280;3549;42.162;24.726;2023-06-22T06:40:16;47396.06;;;-141.97;46.96
7018;BME280;3549;42.162;24.726;2023-06-22T06:42:45;47382.63;;;-141.97;46.10
7018;BME280;3549;42.162;24.726;2023-06-22T06:45:15;47390.31;;;-141.97;46.01
7018;BME280;3549;42.162;24.726;2023-06-22T06:47:53;47407.59;;;-141.97;45.16
7018;BME280;3549;42.162;24.726;2023-06-22T06:50:19;47369.16;;;-141.97;45.02
7018;BME280;3549;42.162;24.726;2023-06-22T06:52:44;47386.47;;;-141.97;44.87
7018;BME280;3549;42.162;24.726;2023-06-22T06:55:10;47380.69;;;-141.97;45.08
7018;BME280;3549;42.162;24.726;2023-06-22T06:57:38;47290.38;;;-141.97;44.92
7018;BME280;3549;42.162;24.726;2023-06-22T07:00:11;47376.84;;;-141.97;43.74
7018;BME280;3549;42.162;24.726;2023-06-22T07:02:42;47359.56;;;-141.97;43.17
7018;BME280;3549;42.162;24.726;2023-06-22T07:05:08;47373.00;;;-141.97;43.09
7018;BME280;3549;42.162;24.726;2023-06-22T07:07:34;47670.91;;;-141.97;42.40
7018;BME280;3549;42.162;24.726;2023-06-22T07:10:00;47263.47;;;-141.97;42.40
7018;BME280;3549;42.162;24.726;2023-06-22T07:12:25;47357.63;;;-141.97;42.06
7018;BME280;3549;42.162;24.726;2023-06-22T07:15:03;47384.53;;;-141.97;42.72
7018;BME280;3549;42.162;24.726;2023-06-22T07:17:29;47617.09;;;-141.97;43.42
7018;BME280;3549;42.162;24.726;2023-06-22T07:19:54;47419.13;;;-141.97;43.61
7018;BME280;3549;42.162;24.726;2023-06-22T07:22:20;47326.88;;;-141.97;43.70
7018;BME280;3549;42.162;24.726;2023-06-22T07:24:45;47380.69;;;-141.97;43.24
7018;BME280;3549;42.162;24.726;2023-06-22T07:27:11;47572.91;;;-141.97;43.57
7018;BME280;3549;42.162;24.726;2023-06-22T07:29:37;47384.53;;;-141.97;43.27
7018;BME280;3549;42.162;24.726;2023-06-22T07:32:05;47338.41;;;-141.97;43.48
7018;BME280;3549;42.162;24.726;2023-06-22T07:34:30;47401.84;;;-141.97;41.93
7018;BME280;3549;42.162;24.726;2023-06-22T07:36:56;47353.78;;;-141.97;42.64
7018;BME280;3549;42.162;24.726;2023-06-22T07:39:21;47374.94;;;-141.97;41.89
7018;BME280;3549;42.162;24.726;2023-06-22T07:41:51;47363.41;;;-141.97;40.93
7018;BME280;3549;42.162;24.726;2023-06-22T07:44:16;47353.78;;;-141.97;41.29
7018;BME280;3549;42.162;24.726;2023-06-22T07:46:42;47392.22;;;-141.97;40.29
7018;BME280;3549;42.162;24.726;2023-06-22T07:49:07;47376.84;;;-141.97;40.14
7018;BME280;3549;42.162;24.726;2023-06-22T07:51:33;47371.09;;;-141.97;39.87
7018;BME280;3549;42.162;24.726;2023-06-22T07:53:59;47338.41;;;-141.97;40.37
7018;BME280;3549;42.162;24.726;2023-06-22T07:56:24;47365.31;;;-141.97;39.96
7018;BME280;3549;42.162;24.726;2023-06-22T07:58:50;47328.81;;;-141.97;39.04
7018;BME280;3549;42.162;24.726;2023-06-22T08:01:18;47323.03;;;-141.97;38.41
7018;BME280;3549;42.162;24.726;2023-06-22T08:03:47;47396.06;;;-141.97;39.10
7018;BME280;3549;42.162;24.726;2023-06-22T08:06:13;47344.19;;;-141.97;38.71
7018;BME280;3549;42.162;24.726;2023-06-22T08:08:39;47315.34;;;-141.97;39.20
7018;BME280;3549;42.162;24.726;2023-06-22T08:11:05;47361.47;;;-141.97;38.99
7018;BME280;3549;42.162;24.726;2023-06-22T08:13:31;47392.22;;;-141.97;39.04
7018;BME280;3549;42.162;24.726;2023-06-22T08:15:56;47349.94;;;-141.97;38.63
7018;BME280;3549;42.162;24.726;2023-06-22T08:18:22;47334.56;;;-141.97;37.42
7018;BME280;3549;42.162;24.726;2023-06-22T08:20:47;47346.09;;;-141.97;36.76
7018;BME280;3549;42.162;24.726;2023-06-22T08:23:12;47323.03;;;-141.97;37.13
7018;BME280;3549;42.162;24.726;2023-06-22T08:25:38;47346.09;;;-141.97;37.26
7018;BME280;3549;42.162;24.726;2023-06-22T08:28:04;47221.19;;;-141.97;37.52
7018;BME280;3549;42.162;24.726;2023-06-22T08:30:29;47271.16;;;-141.97;37.40
7018;BME280;3549;42.162;24.726;2023-06-22T08:32:55;47225.03;;;-141.97;37.28
7018;BME280;3549;42.162;24.726;2023-06-22T08:35:21;47296.13;;;-141.97;35.76
7018;BME280;3549;42.162;24.726;2023-06-22T08:37:47;47242.31;;;-141.97;34.70
7018;BME280;3549;42.162;24.726;2023-06-22T08:40:18;47330.72;;;-141.97;35.14
7018;BME280;3549;42.162;24.726;2023-06-22T08:42:45;47232.72;;;-141.97;35.15
7018;BME280;3549;42.162;24.726;2023-06-22T08:45:12;47313.44;;;-141.97;35.22
7018;BME280;3549;42.162;24.726;2023-06-22T08:47:38;47098.19;;;-141.97;35.40
7018;BME280;3549;42.162;24.726;2023-06-22T08:50:04;47384.53;;;-141.97;35.31
7018;BME280;3549;42.162;24.726;2023-06-22T08:52:29;47198.09;;;-141.97;34.68
7018;BME280;3549;42.162;24.726;2023-06-22T08:54:55;47286.53;;;-141.97;34.28
7018;BME280;3549;42.162;24.726;2023-06-22T08:57:21;47203.88;;;-141.97;33.22
7018;BME280;3549;42.162;24.726;2023-06-22T08:59:46;47265.38;;;-141.97;32.88
7018;BME280;3549;42.162;24.726;2023-06-22T09:02:12;47142.38;;;-141.97;33.40
7018;BME280;3549;42.162;24.726;2023-06-22T09:04:37;47080.88;;;-141.97;32.74
7018;BME280;3549;42.162;24.726;2023-06-22T09:07:03;47142.38;;;-141.97;32.48
7018;BME280;3549;42.162;24.726;2023-06-22T09:09:29;47269.22;;;-141.97;32.49
7018;BME280;3549;42.162;24.726;2023-06-22T09:11:55;47253.84;;;-141.97;32.86
7018;BME280;3549;42.162;24.726;2023-06-22T09:14:20;47338.41;;;-141.97;32.57
7018;BME280;3549;42.162;24.726;2023-06-22T09:16:45;47630.56;;;-141.97;32.27
7018;BME280;3549;42.162;24.726;2023-06-22T09:19:11;47203.88;;;-141.97;32.41
7018;BME280;3549;42.162;24.726;2023-06-22T09:21:36;47167.38;;;-141.97;32.36
7018;BME280;3549;42.162;24.726;2023-06-22T09:24:02;47269.22;;;-141.97;32.52
7018;BME280;3549;42.162;24.726;2023-06-22T09:26:27;47228.88;;;-141.97;32.08
7018;BME280;3549;42.162;24.726;2023-06-22T09:28:53;47253.84;;;-141.97;31.55
7018;BME280;3549;42.162;24.726;2023-06-22T09:31:18;47244.25;;;-141.97;30.48
7018;BME280;3549;42.162;24.726;2023-06-22T09:33:50;47196.19;;;-141.97;30.51
7018;BME280;3549;42.162;24.726;2023-06-22T09:36:16;47321.13;;;-141.97;31.47
7018;BME280;3549;42.162;24.726;2023-06-22T09:38:42;47299.97;;;-141.97;31.31
7018;BME280;3549;42.162;24.726;2023-06-22T09:41:07;47238.47;;;-141.97;31.61
7018;BME280;3549;42.162;24.726;2023-06-22T09:43:33;47207.72;;;-141.97;32.06
7018;BME280;3549;42.162;24.726;2023-06-22T09:46:02;47052.06;;;-141.97;31.32
7018;BME280;3549;42.162;24.726;2023-06-22T09:48:28;47102.03;;;-141.97;31.41
7018;BME280;3549;42.162;24.726;2023-06-22T09:50:54;47188.50;;;-141.97;31.64
7018;BME280;3549;42.162;24.726;2023-06-22T09:53:20;47265.38;;;-141.97;30.93
7018;BME280;3549;42.162;24.726;2023-06-22T09:55:46;47259.63;;;-141.97;30.05
7018;BME280;3549;42.162;24.726;2023-06-22T09:58:12;47215.41;;;-141.97;30.80
7018;BME280;3549;42.162;24.726;2023-06-22T10:00:37;47292.28;;;-141.97;30.83
7018;BME280;3549;42.162;24.726;2023-06-22T10:03:02;47230.78;;;-141.97;30.11
7018;BME280;3549;42.162;24.726;2023-06-22T10:05:28;47261.53;;;-141.97;30.45
7018;BME280;3549;42.162;24.726;2023-06-22T10:07:53;47251.94;;;-141.97;30.18
7018;BME280;3549;42.162;24.726;2023-06-22T10:10:19;47005.94;;;-141.97;29.96
7018;BME280;3549;42.162;24.726;2023-06-22T10:12:55;47234.63;;;-141.97;30.88
7018;BME280;3549;42.162;24.726;2023-06-22T10:15:20;47182.75;;;-141.97;31.31
7018;BME280;3549;42.162;24.726;2023-06-22T10:17:46;47207.72;;;-141.97;30.88
7018;BME280;3549;42.162;24.726;2023-06-22T10:20:12;47196.19;;;-141.97;30.46
7018;BME280;3549;42.162;24.726;2023-06-22T10:22:40;47263.47;;;-141.97;30.43
7018;BME280;3549;42.162;24.726;2023-06-22T10:25:06;47130.84;;;-141.97;30.89
7018;BME280;3549;42.162;24.726;2023-06-22T10:27:32;47119.31;;;-141.97;30.52
7018;BME280;3549;42.162;24.726;2023-06-22T10:29:57;47273.06;;;-141.97;30.71
7018;BME280;3549;42.162;24.726;2023-06-22T10:32:23;47413.38;;;-141.97;30.94
7018;BME280;3549;42.162;24.726;2023-06-22T10:34:48;47261.53;;;-141.97;30.49
7018;BME280;3549;42.162;24.726;2023-06-22T10:37:14;47165.44;;;-141.97;31.08
7018;BME280;3549;42.162;24.726;2023-06-22T10:39:39;47592.13;;;-141.97;31.06
7018;BME280;3549;42.162;24.726;2023-06-22T10:42:05;47157.75;;;-141.97;30.80
7018;BME280;3549;42.162;24.726;2023-06-22T10:44:30;47246.16;;;-141.97;30.87
7018;BME280;3549;42.162;24.726;2023-06-22T10:46:56;47217.34;;;-141.97;30.75
7018;BME280;3549;42.162;24.726;2023-06-22T10:49:21;47188.50;;;-141.97;30.16
7018;BME280;3549;42.162;24.726;2023-06-22T10:51:46;47407.59;;;-141.97;30.23
7018;BME280;3549;42.162;24.726;2023-06-22T10:54:12;47634.41;;;-141.97;30.03
7018;BME280;3549;42.162;24.726;2023-06-22T10:56:39;47246.16;;;-141.97;30.22
7018;BME280;3549;42.162;24.726;2023-06-22T10:59:05;47236.56;;;-141.97;29.99
7018;BME280;3549;42.162;24.726;2023-06-22T11:01:30;47298.06;;;-141.97;30.45
7018;BME280;3549;42.162;24.726;2023-06-22T11:03:56;47242.31;;;-141.97;30.60
7018;BME280;3549;42.162;24.726;2023-06-22T11:06:22;47257.69;;;-141.97;30.24
7018;BME280;3549;42.162;24.726;2023-06-22T11:08:47;47111.63;;;-141.97;30.19
7018;BME280;3549;42.162;24.726;2023-06-22T11:11:13;46973.25;;;-141.97;29.85
7018;BME280;3549;42.162;24.726;2023-06-22T11:13:38;47226.94;;;-141.97;30.28
7018;BME280;3549;42.162;24.726;2023-06-22T11:16:04;47217.34;;;-141.97;30.17
7018;BME280;3549;42.162;24.726;2023-06-22T11:18:31;47196.19;;;-141.97;30.37
7018;BME280;3549;42.162;24.726;2023-06-22T11:20:58;47196.19;;;-141.97;30.03
7018;BME280;3549;42.162;24.726;2023-06-22T11:23:24;47053.97;;;-141.97;29.91
7018;BME280;3549;42.162;24.726;2023-06-22T11:25:51;47205.81;;;-141.97;29.76
7018;BME280;3549;42.162;24.726;2023-06-22T11:28:16;47238.47;;;-141.97;30.01
7018;BME280;3549;42.162;24.726;2023-06-22T11:30:42;46982.88;;;-141.97;30.47
7018;BME280;3549;42.162;24.726;2023-06-22T11:33:07;47246.16;;;-141.97;30.07
7018;BME280;3549;42.162;24.726;2023-06-22T11:35:33;47572.91;;;-141.97;29.70
7018;BME280;3549;42.162;24.726;2023-06-22T11:37:58;47273.06;;;-141.97;30.36
7018;BME280;3549;42.162;24.726;2023-06-22T11:40:25;47482.56;;;-141.97;29.94
7018;BME280;3549;42.162;24.726;2023-06-22T11:42:50;47261.53;;;-141.97;30.20
7018;BME280;3549;42.162;24.726;2023-06-22T11:45:17;47188.50;;;-141.97;29.77
7018;BME280;3549;42.162;24.726;2023-06-22T11:47:43;47336.50;;;-141.97;29.76
7018;BME280;3549;42.162;24.726;2023-06-22T11:50:08;47232.72;;;-141.97;29.88
7018;BME280;3549;42.162;24.726;2023-06-22T11:52:34;47194.28;;;-141.97;29.85
7018;BME280;3549;42.162;24.726;2023-06-22T11:55:01;47403.75;;;-141.97;30.22
7018;BME280;3549;42.162;24.726;2023-06-22T11:57:29;47152.00;;;-141.97;30.67
7018;BME280;3549;42.162;24.726;2023-06-22T11:59:54;47547.91;;;-141.97;30.62
7018;BME280;3549;42.162;24.726;2023-06-22T12:02:20;46940.59;;;-141.97;28.76
7018;BME280;3549;42.162;24.726;2023-06-22T12:04:45;47180.81;;;-141.97;27.91
7018;BME280;3549;42.162;24.726;2023-06-22T12:07:11;47405.69;;;-141.97;26.87
7018;BME280;3549;42.162;24.726;2023-06-22T12:09:37;47140.47;;;-141.97;27.58
7018;BME280;3549;42.162;24.726;2023-06-22T12:12:02;47388.38;;;-141.97;27.47
7018;BME280;3549;42.162;24.726;2023-06-22T12:14:28;46992.47;;;-141.97;26.96
7018;BME280;3549;42.162;24.726;2023-06-22T12:16:53;47130.84;;;-141.97;27.87
7018;BME280;3549;42.162;24.726;2023-06-22T12:19:18;47182.75;;;-141.97;28.03
7018;BME280;3549;42.162;24.726;2023-06-22T12:21:44;47121.25;;;-141.97;28.20
7018;BME280;3549;42.162;24.726;2023-06-22T12:24:10;47169.28;;;-141.97;29.09
7018;BME280;3549;42.162;24.726;2023-06-22T12:26:36;47217.34;;;-141.97;29.88
7018;BME280;3549;42.162;24.726;2023-06-22T12:29:01;47103.94;;;-141.97;29.64
7018;BME280;3549;42.162;24.726;2023-06-22T12:31:26;47084.72;;;-141.97;28.87
7018;BME280;3549;42.162;24.726;2023-06-22T12:33:52;47303.81;;;-141.97;27.52
7018;BME280;3549;42.162;24.726;2023-06-22T12:36:17;47025.16;;;-141.97;26.70
7018;BME280;3549;42.162;24.726;2023-06-22T12:38:42;47384.53;;;-141.97;26.14
7018;BME280;3549;42.162;24.726;2023-06-22T12:41:08;46921.38;;;-141.97;25.90
7018;BME280;3549;42.162;24.726;2023-06-22T12:43:33;47050.13;;;-141.97;25.46
7018;BME280;3549;42.162;24.726;2023-06-22T12:45:59;47303.81;;;-141.97;25.21
7018;BME280;3549;42.162;24.726;2023-06-22T12:48:26;47063.59;;;-141.97;25.93
7018;BME280;3549;42.162;24.726;2023-06-22T12:50:51;46890.63;;;-141.97;26.82
7018;BME280;3549;42.162;24.726;2023-06-22T12:53:17;47030.91;;;-141.97;27.74
7018;BME280;3549;42.162;24.726;2023-06-22T12:55:42;47102.03;;;-141.97;28.20
7018;BME280;3549;42.162;24.726;2023-06-22T12:58:07;46888.72;;;-141.97;29.01